Aviation Digital Data Service (ADDS)

Output produced by METARs form (0209 UTC 11 December 2016)
found at http://www.aviationweather.gov/adds/metars/
 
KCMI 102338Z 1100/1124 14011KT P6SM VCSH OVC040 
     FM111400 15013KT P6SM VCSH OVC040 
     FM111700 18012G22KT 4SM -SNPL BR OVC025 
     FM112000 18012G22KT 3SM -RA BR OVC015